Shelby, MS (38774)

2:36 PM CDT on May 25, 2015 (GMT -0500)
Cleveland Municipal | | Change Station
CLOSE
Current Station
Airport
Location: Cleveland Municipal Airport,
Elevation: 138 ft
Nearby Weather Stations

Elev 138 ft 33.76 °N, 90.76 °W | Updated 21 minutes ago

Overcast
Overcast
82 °F
Feels Like 88 °F
N
9
Wind Variable Wind from South

Today
High -- | Low -- °F
--% Chance of Precip.
Yesterday
High -- | Low -- °F
Precip. -- in
5:55 AM 8:04 PM
Waxing Crescent, 51% visible
Pressure 30.04 in
Visibility 10.0 miles
Clouds Scattered Clouds 2800 ft
Scattered Clouds 3400 ft
Mostly Cloudy 5000 ft
Heat Index 88 °F
Dew Point 74 °F
Humidity 76%
Rainfall 0.00 in
Snow Depth Not available.
UV 6 out of 12
Pollen .70 out of 12
Air Quality Not available.
Flu Activity No Activity
METAR KRNV 251915Z AUTO 17008KT 10SM SCT028 SCT034 BKN050 28/23 A3004 RMK AO2 T02790234

More Conditions Fewer Conditions

Pressure 30.04 in
Visibility 10.0 miles
Clouds Scattered Clouds 2800 ft
Scattered Clouds 3400 ft
Mostly Cloudy 5000 ft
Heat Index 88 °F
Dew Point 74 °F
Humidity 76%
Rainfall 0.00 in
Snow Depth Not available.
UV 6 out of 12
Pollen .70 out of 12
Air Quality Not available.
Flu Activity No Activity
METAR KRNV 251915Z AUTO 17008KT 10SM SCT028 SCT034 BKN050 28/23 A3004 RMK AO2 T02790234

More Conditions Fewer Conditions

10-Day Weather Forecast

Almanac

Astronomy

May. 25, 2015 Rise Set
Actual Time
Civil Twilight
Nautical Twilight
Astronomical Twilight
Moon
Length of Visible Light
Length of Day
Tomorrow will be .
, % of the Moon is Illuminated

Today's Extremes

State Highs State Lows

Community

WunderPhotos

Upload Photos

1,824,100 photos uploaded!

WunderBlogs® & News

Nearby

Air Quality

  Air Quality AQ Index Pollutant
Not available.

Snow Depth

Station Depth Elevation

Earthquake Activity

City Distance Mag. Time & Date
Minimum magnitude displayed is 2.5.

Coastal Water Temperatures

Place Temperature

Stations

Nearby Weather Stations

Station Location Temp. Windchill Dew Point Humidity Wind Precip. Elev Updated Type